logo dgac
Domingo 23 de Septiembre del 2018
Buscar por aerodromo o helipuerto
Ingrese nombre de aeródromo, localidad o designador OACI:
METAR del 23-09-2018 a las 18:00 UTC
METAR SCBA 231800Z 31019KT 9999 FEW020 BKN035 BKN090 08/02 Q1007
Viento: dirección 310 grados, velocidad 19 nudos
Visibilidad: 10 km o más
Nubes: Escasa nubosidad a 2000 pies sobre el nivel del aeródromo
Nubes: Nublado a 3500 pies sobre el nivel del aeródromo
Nubes: Nublado a 9000 pies sobre el nivel del aeródromo
Temperatura: 8 °C
Rocío: 2 °C
Humedad_relativa: 66%
Presión: 1007 hPa
METAR del 23-09-2018 a las 18:00 UTC
METAR SCBA 231800Z 31019KT 9999 FEW020 BKN035 BKN090 08/02 Q1007
Viento: dirección 310 grados, velocidad 19 nudos
Visibilidad: 10 km o más
Nubes: Escasa nubosidad a 2000 pies sobre el nivel del aeródromo
Nubes: Nublado a 3500 pies sobre el nivel del aeródromo
Nubes: Nublado a 9000 pies sobre el nivel del aeródromo
Temperatura: 8 °C
Rocío: 2 °C
Humedad_relativa: 66%
Presión: 1007 hPa
METAR del 23-09-2018 a las 17:00 UTC
METAR SCBA 231700Z 31019KT 9999 FEW020 BKN050 BKN100 08/02 Q1007
Viento: dirección 310 grados, velocidad 19 nudos
Visibilidad: 10 km o más
Nubes: Escasa nubosidad a 2000 pies sobre el nivel del aeródromo
Nubes: Nublado a 5000 pies sobre el nivel del aeródromo
Nubes: Nublado a 10000 pies sobre el nivel del aeródromo
Temperatura: 8 °C
Rocío: 2 °C
Humedad_relativa: 66%
Presión: 1007 hPa
METAR del 23-09-2018 a las 16:00 UTC
METAR SCBA 231600Z 31018KT 9999 FEW020 SCT050 BKN100 07/02 Q1006
Viento: dirección 310 grados, velocidad 18 nudos
Visibilidad: 10 km o más
Nubes: Escasa nubosidad a 2000 pies sobre el nivel del aeródromo
Nubes: Nubosidad parcial a 5000 pies sobre el nivel del aeródromo
Nubes: Nublado a 10000 pies sobre el nivel del aeródromo
Temperatura: 7 °C
Rocío: 2 °C
Humedad_relativa: 70%
Presión: 1006 hPa
METAR del 23-09-2018 a las 15:00 UTC
METAR SCBA 231500Z 31019KT 9999 FEW020 SCT045 BKN100 07/02 Q1006
Viento: dirección 310 grados, velocidad 19 nudos
Visibilidad: 10 km o más
Nubes: Escasa nubosidad a 2000 pies sobre el nivel del aeródromo
Nubes: Nubosidad parcial a 4500 pies sobre el nivel del aeródromo
Nubes: Nublado a 10000 pies sobre el nivel del aeródromo
Temperatura: 7 °C
Rocío: 2 °C
Humedad_relativa: 70%
Presión: 1006 hPa
METAR del 23-09-2018 a las 14:00 UTC
METAR SCBA 231400Z 31018KT 9999 FEW020 SCT040 BKN100 06/02 Q1005
Viento: dirección 310 grados, velocidad 18 nudos
Visibilidad: 10 km o más
Nubes: Escasa nubosidad a 2000 pies sobre el nivel del aeródromo
Nubes: Nubosidad parcial a 4000 pies sobre el nivel del aeródromo
Nubes: Nublado a 10000 pies sobre el nivel del aeródromo
Temperatura: 6 °C
Rocío: 2 °C
Humedad_relativa: 76%
Presión: 1005 hPa
METAR del 23-09-2018 a las 13:00 UTC
METAR SCBA 231300Z 31014KT 9999 SCT020 BKN045 BKN120 04/02 Q1005
Viento: dirección 310 grados, velocidad 14 nudos
Visibilidad: 10 km o más
Nubes: Nubosidad parcial a 2000 pies sobre el nivel del aeródromo
Nubes: Nublado a 4500 pies sobre el nivel del aeródromo
Nubes: Nublado a 12000 pies sobre el nivel del aeródromo
Temperatura: 4 °C
Rocío: 2 °C
Humedad_relativa: 87%
Presión: 1005 hPa
SPECI del 23-09-2018 a las 12:06 UTC
SPECI SCBA 231206Z 32013KT 9999 SCT015 BKN045 BKN090 04/02 Q1005
Viento: dirección 320 grados, velocidad 13 nudos
Visibilidad: 10 km o más
Nubes: Nubosidad parcial a 1500 pies sobre el nivel del aeródromo
Nubes: Nublado a 4500 pies sobre el nivel del aeródromo
Nubes: Nublado a 9000 pies sobre el nivel del aeródromo
Temperatura: 4 °C
Rocío: 2 °C
Humedad_relativa: 87%
Presión: 1005 hPa
METAR del 23-09-2018 a las 12:00 UTC
METAR SCBA 231200Z AUTO 32013KT 9999 SCT011 BKN059 BKN110 04/02 Q1004
Nan: AUTO
Viento: dirección 320 grados, velocidad 13 nudos
Visibilidad: 10 km o más
Nubes: Nubosidad parcial a 1100 pies sobre el nivel del aeródromo
Nubes: Nublado a 5900 pies sobre el nivel del aeródromo
Nubes: Nublado a 11000 pies sobre el nivel del aeródromo
Temperatura: 4 °C
Rocío: 2 °C
Humedad_relativa: 87%
Presión: 1004 hPa
METAR del 23-09-2018 a las 11:00 UTC
METAR SCBA 231100Z AUTO 31009KT 9999 -SHRA FEW013 SCT014 BKN020 04/02 Q1004
Nan: AUTO
Viento: dirección 310 grados, velocidad 9 nudos
Visibilidad: 10 km o más
Débil ChubascosLluvia
Nubes: Escasa nubosidad a 1300 pies sobre el nivel del aeródromo
Nubes: Nubosidad parcial a 1400 pies sobre el nivel del aeródromo
Nubes: Nublado a 2000 pies sobre el nivel del aeródromo
Temperatura: 4 °C
Rocío: 2 °C
Humedad_relativa: 87%
Presión: 1004 hPa